createdAt,value
2022-11-16T00:01:37.253Z,19.07
2022-11-16T00:04:04.840Z,18.93
2022-11-16T00:06:32.634Z,19.67
2022-11-16T00:09:19.089Z,19.27
2022-11-16T00:11:49.771Z,18.60
2022-11-16T00:14:17.376Z,17.90
2022-11-16T00:16:45.096Z,18.10
2022-11-16T00:19:12.949Z,18.03
2022-11-16T00:21:43.045Z,17.90
2022-11-16T00:24:12.856Z,18.93
2022-11-16T00:26:40.318Z,17.83
2022-11-16T00:29:14.430Z,17.40
2022-11-16T00:31:42.408Z,17.60
2022-11-16T00:34:10.024Z,16.73
2022-11-16T00:36:37.470Z,17.37
2022-11-16T00:39:05.100Z,15.93
2022-11-16T00:41:32.704Z,17.00
2022-11-16T00:44:00.133Z,15.60
2022-11-16T00:46:29.168Z,16.70
2022-11-16T00:48:56.638Z,16.80
2022-11-16T00:51:24.047Z,17.20
2022-11-16T00:53:51.716Z,16.47
2022-11-16T00:56:19.295Z,16.90
2022-11-16T00:58:46.747Z,17.47
2022-11-16T01:01:14.607Z,16.03
2022-11-16T01:03:43.471Z,16.77
2022-11-16T01:06:13.104Z,16.20
2022-11-16T01:08:41.959Z,16.47
2022-11-16T01:11:27.676Z,16.13
2022-11-16T01:13:55.663Z,16.00
2022-11-16T01:16:24.482Z,16.17
2022-11-16T01:18:55.371Z,16.00
2022-11-16T01:21:24.427Z,15.50
2022-11-16T01:23:52.564Z,15.80
2022-11-16T01:26:20.240Z,16.23
2022-11-16T01:28:47.971Z,15.57
2022-11-16T01:31:15.664Z,15.93
2022-11-16T01:33:43.176Z,16.07
2022-11-16T01:36:27.807Z,15.83
2022-11-16T01:38:57.531Z,15.80
2022-11-16T01:41:28.450Z,15.83
2022-11-16T01:44:00.719Z,16.10
2022-11-16T01:46:34.336Z,15.67
2022-11-16T01:49:05.450Z,16.53
2022-11-16T01:51:34.586Z,14.93
2022-11-16T01:54:04.471Z,14.90
2022-11-16T01:56:33.069Z,14.83
2022-11-16T01:59:12.949Z,14.50
2022-11-16T02:01:41.055Z,14.97
2022-11-16T02:04:11.082Z,14.20
2022-11-16T02:06:56.061Z,14.00
2022-11-16T02:09:55.205Z,14.33
2022-11-16T02:12:38.470Z,13.90
2022-11-16T02:15:13.225Z,14.47
2022-11-16T02:17:49.676Z,14.50
2022-11-16T02:20:41.844Z,14.50
2022-11-16T02:23:25.843Z,14.63
2022-11-16T02:25:59.995Z,13.63
2022-11-16T02:28:35.546Z,13.93
2022-11-16T02:31:07.081Z,14.47
2022-11-16T02:33:37.136Z,13.53
2022-11-16T02:36:08.711Z,14.40
2022-11-16T02:38:38.840Z,14.70
2022-11-16T02:41:10.092Z,14.97
2022-11-16T02:43:41.427Z,14.53
2022-11-16T02:46:13.509Z,14.83
2022-11-16T02:48:43.855Z,14.57
2022-11-16T02:51:12.138Z,14.50
2022-11-16T02:53:43.095Z,14.17
2022-11-16T02:56:14.180Z,14.20
2022-11-16T02:58:42.131Z,13.97
2022-11-16T03:01:14.380Z,13.90
2022-11-16T03:03:44.348Z,13.80
2022-11-16T03:06:16.243Z,14.67
2022-11-16T03:08:47.257Z,14.50
2022-11-16T03:11:32.455Z,14.50
2022-11-16T03:14:03.731Z,13.90
2022-11-16T03:16:35.943Z,14.20
2022-11-16T03:19:06.104Z,14.63
2022-11-16T03:21:39.139Z,14.67
2022-11-16T03:24:08.107Z,15.17
2022-11-16T03:26:52.335Z,15.20
2022-11-16T03:29:24.930Z,14.60
2022-11-16T03:31:58.370Z,15.17
2022-11-16T03:34:29.404Z,14.43
2022-11-16T03:36:57.368Z,14.23
2022-11-16T03:39:26.736Z,14.43
2022-11-16T03:41:54.615Z,14.60
2022-11-16T03:44:22.623Z,14.67
2022-11-16T03:46:50.058Z,13.70
2022-11-16T03:49:21.845Z,15.03
2022-11-16T03:51:50.227Z,14.20
2022-11-16T03:54:17.992Z,14.43
2022-11-16T03:56:45.413Z,14.67
2022-11-16T03:59:13.267Z,14.77
2022-11-16T04:01:44.697Z,14.97
2022-11-16T04:04:33.714Z,14.67
2022-11-16T04:07:20.738Z,14.60
2022-11-16T04:10:13.852Z,14.03
2022-11-16T04:13:02.275Z,14.90
2022-11-16T04:15:50.612Z,14.73
2022-11-16T04:18:36.523Z,14.37
2022-11-16T04:21:22.987Z,15.00
2022-11-16T04:24:09.612Z,14.13
2022-11-16T04:26:56.375Z,14.80
2022-11-16T04:29:24.604Z,14.70
2022-11-16T04:32:09.705Z,13.43
2022-11-16T04:34:54.797Z,15.63
2022-11-16T04:37:40.022Z,15.13
2022-11-16T04:40:11.005Z,14.37
2022-11-16T04:42:38.423Z,15.23
2022-11-16T04:45:24.239Z,14.93
2022-11-16T04:47:54.190Z,14.90
2022-11-16T04:50:25.883Z,15.10
2022-11-16T04:52:53.340Z,14.57
2022-11-16T04:55:22.521Z,15.23
2022-11-16T04:57:51.499Z,15.73
2022-11-16T05:00:19.711Z,16.57
2022-11-16T05:02:47.421Z,15.77
2022-11-16T05:05:15.323Z,15.40
2022-11-16T05:07:45.431Z,16.67
2022-11-16T05:10:20.009Z,16.53
2022-11-16T05:12:49.885Z,16.33
2022-11-16T05:15:19.745Z,16.83
2022-11-16T05:17:48.386Z,16.40
2022-11-16T05:20:38.279Z,16.33
2022-11-16T05:23:26.288Z,16.30
2022-11-16T05:25:53.675Z,16.83
2022-11-16T05:28:22.439Z,17.27
2022-11-16T05:30:49.960Z,16.93
2022-11-16T05:33:22.119Z,17.50
2022-11-16T05:35:50.647Z,17.13
2022-11-16T05:38:18.761Z,18.10
2022-11-16T05:40:49.309Z,16.90
2022-11-16T05:43:17.900Z,16.83
2022-11-16T05:45:56.225Z,17.53
2022-11-16T05:48:23.896Z,16.67
2022-11-16T05:50:51.336Z,17.30
2022-11-16T05:53:24.352Z,16.73
2022-11-16T05:55:52.085Z,16.90
2022-11-16T05:58:20.784Z,17.77
2022-11-16T06:00:50.960Z,16.60
2022-11-16T06:03:21.237Z,15.00
2022-11-16T06:05:53.041Z,16.03
2022-11-16T06:08:20.855Z,16.53
2022-11-16T06:10:51.336Z,16.00
2022-11-16T06:13:18.823Z,16.87
2022-11-16T06:15:53.165Z,14.97
2022-11-16T06:18:22.128Z,16.17
2022-11-16T06:20:50.692Z,14.53
2022-11-16T06:23:21.120Z,16.37
2022-11-16T06:25:53.853Z,15.93
2022-11-16T06:28:21.647Z,15.73
2022-11-16T06:30:49.647Z,16.03
2022-11-16T06:33:17.134Z,15.87
2022-11-16T06:35:46.207Z,17.07
2022-11-16T06:38:19.320Z,16.03
2022-11-16T06:40:51.842Z,16.63
2022-11-16T06:43:19.988Z,17.20
2022-11-16T06:45:50.176Z,16.77
2022-11-16T06:48:17.718Z,17.27
2022-11-16T06:50:48.088Z,16.70
2022-11-16T06:53:17.822Z,15.37
2022-11-16T06:55:46.285Z,17.40
2022-11-16T06:58:14.151Z,16.77
2022-11-16T07:00:43.023Z,16.77
2022-11-16T07:03:11.765Z,17.40
2022-11-16T07:05:41.703Z,16.60
2022-11-16T07:08:14.766Z,17.73
2022-11-16T07:10:42.224Z,17.10
2022-11-16T07:13:09.677Z,17.23
2022-11-16T07:15:39.568Z,18.10
2022-11-16T07:18:09.088Z,16.50
2022-11-16T07:20:39.191Z,17.83
2022-11-16T07:23:11.370Z,17.13
2022-11-16T07:25:46.628Z,16.53
2022-11-16T07:28:15.721Z,17.53
2022-11-16T07:30:44.595Z,17.27
2022-11-16T07:33:16.969Z,17.50
2022-11-16T07:36:03.484Z,16.50
2022-11-16T07:38:32.212Z,18.17
2022-11-16T07:41:03.163Z,17.53
2022-11-16T07:43:35.006Z,18.17
2022-11-16T07:46:45.252Z,18.33
2022-11-16T07:49:01.107Z,18.17
2022-11-16T07:51:51.957Z,16.67
2022-11-16T07:54:33.647Z,17.20
2022-11-16T07:57:02.609Z,18.63
2022-11-16T07:59:30.125Z,17.10
2022-11-16T08:01:59.531Z,17.13
2022-11-16T08:04:28.349Z,16.57
2022-11-16T08:06:56.133Z,17.50
2022-11-16T08:09:24.119Z,17.53
2022-11-16T08:11:52.234Z,17.93
2022-11-16T08:14:21.561Z,16.40
2022-11-16T08:16:50.799Z,17.60
2022-11-16T08:19:18.857Z,16.70
2022-11-16T08:21:49.643Z,17.13
2022-11-16T08:24:18.132Z,17.30
2022-11-16T08:26:46.070Z,15.90
2022-11-16T08:29:15.787Z,16.40
2022-11-16T08:31:50.995Z,16.13
2022-11-16T08:34:21.216Z,16.80
2022-11-16T08:36:52.247Z,16.27
2022-11-16T08:39:25.653Z,16.97
2022-11-16T08:41:53.217Z,16.90
2022-11-16T08:44:20.903Z,16.90
2022-11-16T08:46:53.980Z,16.67
2022-11-16T08:49:29.783Z,16.13
2022-11-16T08:51:57.991Z,15.97
2022-11-16T08:54:25.527Z,16.10
2022-11-16T08:56:53.291Z,15.47
2022-11-16T08:59:20.780Z,15.63
2022-11-16T09:01:51.591Z,16.23
2022-11-16T09:04:20.411Z,16.30
2022-11-16T09:06:47.973Z,16.17
2022-11-16T09:09:15.591Z,16.03
2022-11-16T09:11:43.048Z,16.13
2022-11-16T09:14:10.614Z,16.30
2022-11-16T09:16:38.032Z,16.43
2022-11-16T09:19:05.451Z,16.27
2022-11-16T09:21:36.346Z,16.50
2022-11-16T09:24:04.145Z,16.37
2022-11-16T09:26:31.609Z,16.00
2022-11-16T09:29:00.160Z,16.00
2022-11-16T09:31:28.640Z,16.07
2022-11-16T09:33:58.169Z,15.90
2022-11-16T09:36:26.276Z,14.80
2022-11-16T09:39:29.590Z,16.20
2022-11-16T09:41:59.325Z,15.17
2022-11-16T09:45:00.092Z,15.80
2022-11-16T09:47:42.945Z,15.83
2022-11-16T09:50:20.353Z,15.70
2022-11-16T09:52:49.336Z,15.30
2022-11-16T09:55:25.717Z,15.93
2022-11-16T09:57:56.194Z,15.97
2022-11-16T10:00:24.116Z,16.50
2022-11-16T10:02:59.151Z,16.80
2022-11-16T10:05:29.677Z,16.27
2022-11-16T10:08:01.471Z,16.97
2022-11-16T10:10:35.757Z,16.37
2022-11-16T10:13:09.419Z,16.87
2022-11-16T10:15:44.129Z,16.10
2022-11-16T10:18:21.427Z,16.80
2022-11-16T10:20:57.956Z,16.00
2022-11-16T10:23:35.937Z,16.80
2022-11-16T10:26:13.303Z,17.23
2022-11-16T10:29:15.551Z,17.07
2022-11-16T10:31:54.002Z,18.17
2022-11-16T10:34:23.908Z,17.97
2022-11-16T10:36:51.495Z,18.70
2022-11-16T10:39:20.393Z,18.47
2022-11-16T10:41:50.845Z,19.00
2022-11-16T10:44:21.493Z,19.40
2022-11-16T10:46:57.204Z,18.63
2022-11-16T10:49:29.924Z,18.67
2022-11-16T10:51:57.365Z,19.37
2022-11-16T10:54:24.815Z,17.63
2022-11-16T10:57:00.897Z,17.77
2022-11-16T10:59:39.767Z,18.00
2022-11-16T11:02:29.018Z,18.37
2022-11-16T11:05:05.211Z,18.37
2022-11-16T11:07:34.485Z,18.10
2022-11-16T11:10:02.137Z,18.30
2022-11-16T11:12:40.194Z,17.97
2022-11-16T11:15:26.138Z,18.20
2022-11-16T11:18:13.168Z,18.67
2022-11-16T11:20:45.101Z,18.37
2022-11-16T11:23:15.858Z,17.43
2022-11-16T11:25:50.791Z,17.50
2022-11-16T11:28:22.771Z,18.47
2022-11-16T11:31:00.091Z,17.67
2022-11-16T11:33:30.352Z,17.50
2022-11-16T11:36:01.796Z,18.10
2022-11-16T11:38:30.910Z,18.10
2022-11-16T11:41:00.401Z,17.13
2022-11-16T11:43:29.965Z,17.87
2022-11-16T11:46:05.217Z,18.03
2022-11-16T11:48:38.319Z,17.90
2022-11-16T11:51:13.039Z,19.60
2022-11-16T11:53:46.596Z,18.30
2022-11-16T11:56:15.178Z,17.97
2022-11-16T11:58:44.470Z,18.07
2022-11-16T12:01:41.915Z,18.00
2022-11-16T12:04:26.687Z,17.90
2022-11-16T12:07:00.752Z,18.27
2022-11-16T12:09:37.424Z,18.70
2022-11-16T12:12:16.040Z,17.83
2022-11-16T12:14:57.407Z,19.23
2022-11-16T12:17:28.860Z,18.60
2022-11-16T12:20:06.924Z,18.17
2022-11-16T12:22:46.288Z,19.13
2022-11-16T12:25:21.812Z,18.57
2022-11-16T12:27:55.063Z,18.63
2022-11-16T12:30:24.844Z,18.20
2022-11-16T12:33:00.823Z,18.27
2022-11-16T12:35:42.628Z,17.90
2022-11-16T12:38:26.056Z,18.73
2022-11-16T12:41:04.954Z,17.70
2022-11-16T12:43:37.587Z,18.13
2022-11-16T12:46:12.651Z,18.13
2022-11-16T12:49:08.621Z,19.10
2022-11-16T12:51:46.427Z,18.30
2022-11-16T12:54:32.335Z,18.50
2022-11-16T12:57:04.951Z,17.63
2022-11-16T12:59:46.369Z,18.30
2022-11-16T13:02:25.092Z,18.60
2022-11-16T13:04:57.452Z,18.80
2022-11-16T13:07:28.583Z,19.23
2022-11-16T13:09:58.425Z,18.27
2022-11-16T13:12:26.876Z,18.40
2022-11-16T13:14:55.942Z,18.30
2022-11-16T13:17:26.745Z,19.07
2022-11-16T13:20:11.691Z,18.40
2022-11-16T13:22:44.810Z,19.10
2022-11-16T13:25:19.536Z,18.47
2022-11-16T13:27:49.327Z,18.20
2022-11-16T13:30:19.456Z,18.40
2022-11-16T13:32:59.128Z,18.70
2022-11-16T13:35:26.981Z,18.47
2022-11-16T13:37:54.451Z,18.40
2022-11-16T13:40:30.333Z,18.43
2022-11-16T13:43:18.693Z,18.57
2022-11-16T13:45:54.260Z,18.90
2022-11-16T13:48:25.187Z,18.77
2022-11-16T13:50:54.552Z,19.23
2022-11-16T13:56:15.902Z,19.00
2022-11-16T13:58:46.096Z,18.67
2022-11-16T14:01:15.178Z,19.23
2022-11-16T14:03:44.655Z,18.80
2022-11-16T14:06:45.747Z,18.63
2022-11-16T14:09:44.209Z,18.90
2022-11-16T14:12:44.339Z,19.83
2022-11-16T14:15:15.775Z,18.47
2022-11-16T14:17:54.207Z,18.67
2022-11-16T14:20:43.503Z,18.80
2022-11-16T14:23:17.648Z,18.63
2022-11-16T14:25:50.539Z,18.70
2022-11-16T14:28:35.198Z,18.77
2022-11-16T14:31:13.917Z,19.13
2022-11-16T14:33:41.408Z,18.53
2022-11-16T14:36:11.150Z,18.80
2022-11-16T14:38:39.727Z,20.20
2022-11-16T14:41:10.888Z,19.40
2022-11-16T14:43:41.220Z,19.00
2022-11-16T14:46:10.514Z,19.27
2022-11-16T14:48:44.808Z,19.03
2022-11-16T14:51:15.850Z,19.00
2022-11-16T14:53:48.547Z,18.70
2022-11-16T14:56:18.792Z,18.60
2022-11-16T14:58:54.152Z,18.60
2022-11-16T15:01:24.580Z,19.00
2022-11-16T15:03:55.807Z,17.93
2022-11-16T15:06:26.033Z,17.90
2022-11-16T15:08:55.472Z,18.37
2022-11-16T15:11:25.885Z,17.70
2022-11-16T15:13:54.856Z,18.47
2022-11-16T15:16:22.325Z,17.80
2022-11-16T15:18:58.049Z,16.90
2022-11-16T15:21:27.355Z,17.27
2022-11-16T15:24:23.367Z,17.53
2022-11-16T15:26:42.252Z,16.90
2022-11-16T15:29:15.495Z,16.47
2022-11-16T15:31:43.204Z,16.23
2022-11-16T15:34:15.128Z,16.63
2022-11-16T15:36:44.055Z,15.13
2022-11-16T15:39:14.015Z,15.30
2022-11-16T15:41:41.759Z,14.83
2022-11-16T15:44:15.041Z,15.10
2022-11-16T15:46:44.039Z,14.63
2022-11-16T15:49:20.636Z,14.50
2022-11-16T15:51:49.346Z,13.80
2022-11-16T15:54:23.600Z,14.07
2022-11-16T15:56:51.168Z,14.47
2022-11-16T15:59:26.862Z,14.00
2022-11-16T16:01:54.627Z,14.50
2022-11-16T16:04:22.423Z,13.77
2022-11-16T16:06:52.658Z,14.60
2022-11-16T16:09:26.197Z,13.70
2022-11-16T16:11:54.055Z,14.03
2022-11-16T16:14:26.695Z,13.80
2022-11-16T16:16:54.875Z,14.53
2022-11-16T16:19:34.440Z,15.30
2022-11-16T16:22:04.268Z,15.23
2022-11-16T16:24:37.904Z,14.83
2022-11-16T16:27:11.783Z,15.60
2022-11-16T16:29:39.235Z,15.43
2022-11-16T16:32:06.843Z,16.47
2022-11-16T16:34:37.746Z,14.90
2022-11-16T16:37:10.135Z,15.17
2022-11-16T16:39:38.601Z,20.00
2022-11-16T16:42:07.087Z,17.23
2022-11-16T16:44:34.533Z,17.97
2022-11-16T16:47:01.949Z,13.83
2022-11-16T16:49:29.405Z,15.97
2022-11-16T16:51:56.884Z,16.37
2022-11-16T16:54:25.853Z,12.93
2022-11-16T16:56:53.334Z,13.00
2022-11-16T16:59:20.797Z,17.40
2022-11-16T17:01:48.295Z,13.77
2022-11-16T17:04:15.702Z,14.03
2022-11-16T17:06:46.426Z,14.83
2022-11-16T17:09:14.678Z,12.97
2022-11-16T17:11:43.428Z,13.77
2022-11-16T17:14:11.167Z,14.27
2022-11-16T17:16:38.801Z,15.10
2022-11-16T17:19:06.384Z,19.80
2022-11-16T17:21:34.061Z,14.93
2022-11-16T17:24:01.523Z,14.30
2022-11-16T17:26:29.424Z,14.73
2022-11-16T17:28:58.847Z,15.83
2022-11-16T17:31:27.803Z,17.23
2022-11-16T17:33:57.283Z,14.87
2022-11-16T17:36:24.830Z,17.70
2022-11-16T17:38:52.288Z,15.17
2022-11-16T17:41:21.806Z,14.73
2022-11-16T17:43:49.455Z,14.90
2022-11-16T17:46:19.900Z,16.17
2022-11-16T17:48:48.380Z,14.97
2022-11-16T17:51:17.918Z,14.83
2022-11-16T17:53:45.494Z,16.53
2022-11-16T17:56:14.156Z,16.10
2022-11-16T17:58:42.053Z,16.40
2022-11-16T18:01:09.506Z,15.67
2022-11-16T18:03:38.954Z,16.90
2022-11-16T18:06:08.700Z,16.07
2022-11-16T18:08:37.080Z,16.40
2022-11-16T18:11:06.269Z,16.47
2022-11-16T18:13:34.623Z,16.40
2022-11-16T18:16:06.590Z,17.30
2022-11-16T18:18:34.405Z,17.20
2022-11-16T18:21:03.238Z,17.70
2022-11-16T18:23:30.666Z,17.10
2022-11-16T18:25:58.108Z,17.47
2022-11-16T18:28:25.618Z,15.20
2022-11-16T18:30:53.075Z,15.87
2022-11-16T18:33:20.615Z,16.20
2022-11-16T18:35:48.032Z,16.17
2022-11-16T18:38:16.800Z,16.43
2022-11-16T18:40:44.262Z,16.77
2022-11-16T18:43:12.755Z,16.60
2022-11-16T18:45:40.194Z,16.80
2022-11-16T18:48:08.059Z,16.60
2022-11-16T18:50:35.507Z,17.53
2022-11-16T18:53:02.948Z,20.13
2022-11-16T18:55:31.749Z,20.63
2022-11-16T18:57:59.307Z,19.27
2022-11-16T19:00:26.800Z,21.10
2022-11-16T19:02:54.270Z,19.27
2022-11-16T19:05:21.802Z,20.37
2022-11-16T19:07:49.287Z,18.47
2022-11-16T19:10:16.853Z,19.10
2022-11-16T19:12:45.627Z,17.03
2022-11-16T19:15:13.075Z,18.80
2022-11-16T19:17:59.664Z,22.43
2022-11-16T19:20:28.200Z,20.87
2022-11-16T19:22:55.667Z,19.70
2022-11-16T19:25:23.633Z,17.67
2022-11-16T19:27:52.939Z,17.87
2022-11-16T19:30:20.687Z,21.97
2022-11-16T19:32:48.208Z,17.13
2022-11-16T19:35:16.173Z,20.13
2022-11-16T19:37:43.804Z,18.73
2022-11-16T19:40:12.343Z,17.57
2022-11-16T19:42:40.719Z,16.53
2022-11-16T19:45:11.071Z,19.03
2022-11-16T19:47:39.413Z,20.10
2022-11-16T19:50:10.410Z,24.23
2022-11-16T19:52:39.453Z,22.17
2022-11-16T19:55:08.589Z,23.13
2022-11-16T19:57:37.059Z,25.17
2022-11-16T20:00:06.364Z,20.90
2022-11-16T20:02:36.612Z,29.73
2022-11-16T20:05:05.393Z,22.37
2022-11-16T20:07:38.290Z,21.40
2022-11-16T20:10:07.866Z,24.07
2022-11-16T20:12:36.255Z,21.20
2022-11-16T20:15:05.575Z,24.83
2022-11-16T20:17:35.719Z,27.23
2022-11-16T20:20:04.244Z,22.07
2022-11-16T20:22:32.972Z,26.33
2022-11-16T20:25:02.218Z,23.37
2022-11-16T20:27:30.835Z,20.90
2022-11-16T20:29:59.280Z,26.33
2022-11-16T20:32:28.303Z,22.50
2022-11-16T20:34:58.183Z,24.07
2022-11-16T20:37:26.494Z,24.73
2022-11-16T20:39:57.194Z,22.67
2022-11-16T20:42:25.246Z,24.33
2022-11-16T20:44:53.124Z,26.73
2022-11-16T20:47:20.705Z,20.33
2022-11-16T20:49:48.344Z,23.43
2022-11-16T20:52:18.741Z,23.63
2022-11-16T20:54:46.265Z,20.70
2022-11-16T20:57:13.744Z,21.73
2022-11-16T20:59:41.259Z,23.33
2022-11-16T21:02:10.575Z,22.17
2022-11-16T21:04:38.028Z,19.60
2022-11-16T21:07:05.504Z,21.93
2022-11-16T21:09:54.283Z,22.83
2022-11-16T21:12:42.748Z,20.57
2022-11-16T21:15:10.815Z,23.17
2022-11-16T21:17:38.219Z,18.80
2022-11-16T21:20:26.269Z,23.27
2022-11-16T21:22:53.712Z,21.97
2022-11-16T21:25:22.519Z,23.17
2022-11-16T21:27:49.909Z,23.13
2022-11-16T21:30:17.706Z,22.07
2022-11-16T21:32:45.127Z,19.27
2022-11-16T21:35:12.659Z,20.00
2022-11-16T21:37:40.080Z,17.50
2022-11-16T21:40:08.762Z,17.53
2022-11-16T21:42:37.527Z,19.30
2022-11-16T21:45:05.491Z,19.33
2022-11-16T21:47:32.915Z,13.97
2022-11-16T21:50:30.089Z,16.50
2022-11-16T21:52:47.879Z,15.83
2022-11-16T21:55:15.302Z,20.60
2022-11-16T21:57:44.068Z,19.87
2022-11-16T22:00:12.732Z,17.43
2022-11-16T22:02:40.127Z,18.30
2022-11-16T22:05:26.859Z,16.67
2022-11-16T22:07:54.423Z,14.60
2022-11-16T22:10:22.232Z,17.13
2022-11-16T22:12:50.980Z,16.27
2022-11-16T22:15:18.395Z,17.80
2022-11-16T22:17:46.134Z,15.07
2022-11-16T22:20:13.730Z,18.77
2022-11-16T22:22:41.167Z,16.50
2022-11-16T22:25:09.185Z,16.10
2022-11-16T22:27:52.445Z,15.53
2022-11-16T22:30:25.635Z,13.47
2022-11-16T22:32:54.033Z,17.80
2022-11-16T22:35:21.447Z,16.50
2022-11-16T22:37:48.832Z,14.97
2022-11-16T22:40:17.899Z,18.80
2022-11-16T22:42:45.497Z,17.77
2022-11-16T22:45:13.004Z,17.00
2022-11-16T22:47:41.804Z,18.70
2022-11-16T22:50:09.851Z,18.23
2022-11-16T22:52:37.260Z,19.10
2022-11-16T22:55:05.273Z,17.53
2022-11-16T22:57:32.677Z,14.20
2022-11-16T23:00:00.083Z,19.30
2022-11-16T23:02:27.480Z,11.50
2022-11-16T23:04:56.196Z,17.83
2022-11-16T23:07:23.730Z,11.87
2022-11-16T23:09:51.187Z,15.07
2022-11-16T23:12:36.243Z,16.10
2022-11-16T23:15:21.226Z,18.37
2022-11-16T23:17:48.643Z,11.67
2022-11-16T23:20:34.972Z,16.30
2022-11-16T23:23:20.003Z,17.20
2022-11-16T23:26:05.689Z,16.27
2022-11-16T23:28:33.193Z,22.43
2022-11-16T23:31:00.613Z,15.63
2022-11-16T23:33:42.110Z,19.67
2022-11-16T23:36:11.088Z,17.87
2022-11-16T23:38:38.536Z,18.70
2022-11-16T23:41:20.127Z,18.47
2022-11-16T23:43:59.941Z,19.07
2022-11-16T23:46:28.254Z,20.67
2022-11-16T23:48:55.835Z,16.73
2022-11-16T23:51:24.918Z,19.90
2022-11-16T23:53:52.570Z,16.20
2022-11-16T23:56:20.753Z,18.70
2022-11-16T23:58:48.726Z,13.93
